Time;durP1;ratioP1;P1;durP2;ratioP2;P2;SDS_P1;SDS_P2;PMS_P1;PMS_P2;Temp;Humidity;BMP_temperature;BMP_pressure;BME280_temperature;BME280_humidity;BME280_pressure;Samples;Min_cycle;Max_cycle;Signal;HPM_P1;HPM_P2
2023/07/27 00:00:15;;;;;;;4.10;2.50;;;;;;;;;;5055550;28;20028;-80
2023/07/27 00:02:40;;;;;;;2.50;2.30;;;;;;;;;;5037431;28;20032;-80
2023/07/27 00:05:06;;;;;;;3.10;2.30;;;;;;;;;;5055325;28;20350;-79
2023/07/27 00:07:31;;;;;;;2.30;2.10;;;;;;;;;;5038155;28;20446;-80
2023/07/27 00:09:57;;;;;;;3.78;2.55;;;;;;;;;;5055848;28;20028;-80
2023/07/27 00:12:22;;;;;;;2.38;2.17;;;;;;;;;;5037539;28;20033;-80
2023/07/27 00:14:48;;;;;;;2.03;1.92;;;;;;;;;;5055508;28;20044;-80
2023/07/27 00:17:14;;;;;;;4.03;2.10;;;;;;;;;;5037536;28;20033;-80
2023/07/27 00:19:39;;;;;;;2.00;1.90;;;;;;;;;;5061319;28;20084;-79
2023/07/27 00:22:05;;;;;;;2.55;1.85;;;;;;;;;;5060720;28;20425;-80
2023/07/27 00:24:31;;;;;;;3.60;1.60;;;;;;;;;;5058985;28;20525;-80
2023/07/27 00:26:56;;;;;;;2.10;1.90;;;;;;;;;;5064583;28;20032;-80
2023/07/27 00:29:22;;;;;;;1.60;1.50;;;;;;;;;;5060073;28;20037;-80
2023/07/27 00:31:47;;;;;;;4.35;1.67;;;;;;;;;;5036864;28;20051;-79
2023/07/27 00:34:13;;;;;;;1.70;1.60;;;;;;;;;;5055218;28;20032;-80
2023/07/27 00:36:38;;;;;;;2.28;1.70;;;;;;;;;;5054862;28;20120;-80
2023/07/27 00:39:03;;;;;;;1.88;1.77;;;;;;;;;;5054549;28;20039;-80
2023/07/27 00:41:29;;;;;;;1.65;1.55;;;;;;;;;;5036780;28;20033;-80
2023/07/27 00:43:54;;;;;;;1.83;1.73;;;;;;;;;;5054786;28;20029;-80
2023/07/27 00:46:20;;;;;;;2.42;1.67;;;;;;;;;;5054364;28;20099;-80
2023/07/27 00:48:45;;;;;;;5.45;1.65;;;;;;;;;;5037328;28;20327;-80
2023/07/27 00:51:11;;;;;;;1.90;1.73;;;;;;;;;;5036606;28;20048;-80
2023/07/27 00:53:36;;;;;;;2.10;1.80;;;;;;;;;;5054521;28;20028;-80
2023/07/27 00:56:02;;;;;;;2.50;1.90;;;;;;;;;;5036565;28;20056;-80
2023/07/27 00:58:28;;;;;;;2.00;1.55;;;;;;;;;;5054832;28;20029;-80
2023/07/27 01:00:53;;;;;;;3.28;1.70;;;;;;;;;;5036399;28;20036;-80
2023/07/27 01:03:18;;;;;;;3.75;1.90;;;;;;;;;;5054613;28;20029;-79
2023/07/27 01:05:44;;;;;;;3.22;2.00;;;;;;;;;;5054377;28;20028;-80
2023/07/27 01:08:10;;;;;;;2.20;1.80;;;;;;;;;;5036639;28;20032;-80
2023/07/27 01:10:47;;;;;;;2.85;1.70;;;;;;;;;;5054259;28;20029;-80
2023/07/27 01:13:19;;;;;;;2.47;1.73;;;;;;;;;;5054352;28;20039;-80
2023/07/27 01:15:48;;;;;;;4.50;1.65;;;;;;;;;;5037058;28;20035;-80
2023/07/27 01:18:18;;;;;;;3.47;1.98;;;;;;;;;;5020481;28;20048;-81
2023/07/27 01:20:53;;;;;;;4.38;2.00;;;;;;;;;;5020460;28;20450;-80
2023/07/27 01:23:54;;;;;;;2.40;1.88;;;;;;;;;;5020802;28;20474;-80
2023/07/27 01:26:42;;;;;;;3.13;1.80;;;;;;;;;;5043464;28;20143;-80
2023/07/27 01:29:17;;;;;;;1.77;1.67;;;;;;;;;;5053311;28;20113;-80
2023/07/27 01:31:43;;;;;;;1.75;1.60;;;;;;;;;;5054270;28;20036;-80
2023/07/27 01:34:21;;;;;;;2.72;1.70;;;;;;;;;;5036359;28;20120;-80
2023/07/27 01:36:48;;;;;;;2.17;1.75;;;;;;;;;;5036668;28;20036;-80
2023/07/27 01:39:13;;;;;;;1.70;1.60;;;;;;;;;;5019843;28;20025;-80
2023/07/27 01:41:41;;;;;;;5.35;1.60;;;;;;;;;;5036228;28;20146;-80
2023/07/27 01:44:07;;;;;;;2.95;1.40;;;;;;;;;;5020164;28;20028;-80
2023/07/27 01:46:32;;;;;;;2.58;1.40;;;;;;;;;;5036099;28;20033;-80
2023/07/27 01:48:58;;;;;;;4.63;1.30;;;;;;;;;;5019889;28;20033;-80
2023/07/27 01:51:24;;;;;;;1.60;1.50;;;;;;;;;;5003631;28;20037;-79
2023/07/27 01:53:50;;;;;;;1.50;1.40;;;;;;;;;;5019836;28;20036;-80
2023/07/27 01:56:15;;;;;;;1.80;1.40;;;;;;;;;;5003488;28;20386;-80
2023/07/27 01:58:40;;;;;;;1.42;1.33;;;;;;;;;;5035820;28;20079;-79
2023/07/27 02:01:06;;;;;;;2.97;1.48;;;;;;;;;;5019517;28;20040;-80
2023/07/27 02:03:31;;;;;;;1.60;1.50;;;;;;;;;;5053948;28;20021;-80
2023/07/27 02:05:57;;;;;;;3.90;1.60;;;;;;;;;;5036639;28;20158;-80
2023/07/27 02:08:22;;;;;;;1.80;1.70;;;;;;;;;;5054203;28;20331;-79
2023/07/27 02:10:52;;;;;;;1.77;1.67;;;;;;;;;;5053925;28;20024;-80
2023/07/27 02:13:24;;;;;;;4.45;1.80;;;;;;;;;;5019590;28;20056;-80
2023/07/27 02:16:03;;;;;;;1.88;1.70;;;;;;;;;;5019937;28;20037;-79
2023/07/27 02:18:28;;;;;;;3.35;1.90;;;;;;;;;;5019941;28;20067;-79
2023/07/27 02:20:53;;;;;;;1.88;1.50;;;;;;;;;;5035991;28;20407;-80
2023/07/27 02:23:19;;;;;;;2.13;1.50;;;;;;;;;;5035885;28;20474;-79
2023/07/27 02:25:44;;;;;;;5.72;1.52;;;;;;;;;;5019232;28;20087;-79
2023/07/27 02:28:10;;;;;;;4.32;1.65;;;;;;;;;;5035466;28;20033;-80
2023/07/27 02:30:36;;;;;;;2.17;1.50;;;;;;;;;;5035987;28;20021;-80
2023/07/27 02:33:01;;;;;;;1.80;1.70;;;;;;;;;;5035804;28;20036;-80
2023/07/27 02:35:27;;;;;;;1.40;1.30;;;;;;;;;;5019417;28;20037;-80
2023/07/27 02:37:52;;;;;;;2.20;1.55;;;;;;;;;;5053373;28;20116;-80
2023/07/27 02:40:18;;;;;;;2.17;1.38;;;;;;;;;;5054487;28;20041;-80
2023/07/27 02:42:43;;;;;;;3.88;1.20;;;;;;;;;;5057033;28;20029;-80
2023/07/27 02:45:09;;;;;;;3.75;1.60;;;;;;;;;;5056964;28;20029;-80
2023/07/27 02:47:35;;;;;;;1.40;1.30;;;;;;;;;;5057748;28;20060;-80
2023/07/27 02:50:00;;;;;;;2.30;1.52;;;;;;;;;;5056821;28;20025;-79
2023/07/27 02:52:25;;;;;;;1.52;1.42;;;;;;;;;;5056894;28;20401;-79
2023/07/27 02:54:51;;;;;;;1.60;1.50;;;;;;;;;;5057025;28;20468;-80
2023/07/27 02:57:16;;;;;;;2.20;1.50;;;;;;;;;;5056411;28;20083;-79
2023/07/27 02:59:42;;;;;;;3.95;1.70;;;;;;;;;;5057002;28;20474;-79
2023/07/27 03:02:07;;;;;;;12.30;1.73;;;;;;;;;;5039146;28;20083;-80
2023/07/27 03:04:33;;;;;;;1.83;1.70;;;;;;;;;;5038768;28;20036;-80
2023/07/27 03:06:58;;;;;;;2.40;2.20;;;;;;;;;;5038865;28;20354;-80
2023/07/27 03:09:24;;;;;;;5.32;1.95;;;;;;;;;;5038743;28;20211;-79
2023/07/27 03:11:49;;;;;;;2.30;2.10;;;;;;;;;;5056761;28;20029;-79
2023/07/27 03:14:15;;;;;;;2.75;2.10;;;;;;;;;;5056330;28;20060;-80
2023/07/27 03:16:41;;;;;;;7.35;2.08;;;;;;;;;;5039089;28;20044;-80
2023/07/27 03:19:06;;;;;;;2.22;1.95;;;;;;;;;;5056454;28;20024;-79
2023/07/27 03:21:31;;;;;;;2.88;2.08;;;;;;;;;;5022344;28;20465;-79
2023/07/27 03:23:57;;;;;;;2.00;1.90;;;;;;;;;;5038810;28;20029;-80
2023/07/27 03:26:22;;;;;;;3.53;2.63;;;;;;;;;;5055984;28;20090;-80
2023/07/27 03:28:48;;;;;;;2.85;2.50;;;;;;;;;;5038531;28;20116;-79
2023/07/27 03:31:24;;;;;;;2.40;2.20;;;;;;;;;;5056131;28;20142;-79
2023/07/27 03:33:49;;;;;;;2.47;2.30;;;;;;;;;;5038909;28;20052;-79
2023/07/27 03:36:15;;;;;;;2.70;2.50;;;;;;;;;;5038399;28;20452;-80
2023/07/27 03:38:41;;;;;;;3.63;2.80;;;;;;;;;;5055989;28;20029;-79
2023/07/27 03:41:06;;;;;;;2.85;2.63;;;;;;;;;;5056212;28;20040;-80
2023/07/27 03:43:32;;;;;;;3.78;2.53;;;;;;;;;;5055848;28;20029;-80
2023/07/27 03:45:57;;;;;;;2.58;2.38;;;;;;;;;;5037969;28;20056;-79
2023/07/27 03:48:23;;;;;;;3.17;2.60;;;;;;;;;;5039375;28;20036;-80
2023/07/27 03:50:48;;;;;;;3.35;2.50;;;;;;;;;;5042274;28;20096;-78
2023/07/27 03:53:14;;;;;;;6.93;2.70;;;;;;;;;;5028294;28;20041;-79
2023/07/27 03:55:40;;;;;;;2.75;2.40;;;;;;;;;;5021423;28;20024;-79
2023/07/27 03:58:05;;;;;;;3.75;2.70;;;;;;;;;;5039624;28;20114;-80
2023/07/27 04:00:31;;;;;;;6.72;2.40;;;;;;;;;;5039627;28;20039;-80
2023/07/27 04:02:56;;;;;;;2.45;2.25;;;;;;;;;;5055530;28;20036;-80
2023/07/27 04:05:21;;;;;;;3.55;2.45;;;;;;;;;;5038075;28;20044;-80
2023/07/27 04:07:49;;;;;;;5.10;2.30;;;;;;;;;;5055253;28;20025;-80
2023/07/27 04:10:15;;;;;;;4.97;2.75;;;;;;;;;;5037609;28;20036;-80
2023/07/27 04:12:40;;;;;;;3.00;2.75;;;;;;;;;;5055095;28;20054;-80
2023/07/27 04:15:06;;;;;;;5.93;3.10;;;;;;;;;;5037335;28;20033;-80
2023/07/27 04:17:32;;;;;;;5.13;3.10;;;;;;;;;;5055851;28;20717;-80
2023/07/27 04:19:57;;;;;;;5.38;2.92;;;;;;;;;;5037620;28;20386;-79
2023/07/27 04:22:22;;;;;;;3.63;3.00;;;;;;;;;;5055183;28;20025;-80
2023/07/27 04:24:49;;;;;;;3.28;2.97;;;;;;;;;;5036830;28;20447;-80
2023/07/27 04:27:14;;;;;;;3.20;2.83;;;;;;;;;;5054791;28;20032;-80
2023/07/27 04:29:40;;;;;;;3.63;3.00;;;;;;;;;;5055014;28;20405;-79
2023/07/27 04:32:06;;;;;;;4.45;3.03;;;;;;;;;;5054746;28;20025;-80
2023/07/27 04:34:31;;;;;;;3.03;2.55;;;;;;;;;;5054990;28;20059;-80
2023/07/27 04:36:57;;;;;;;3.17;2.88;;;;;;;;;;5036876;28;20443;-80
2023/07/27 04:39:22;;;;;;;4.25;2.60;;;;;;;;;;5054340;28;20064;-80
2023/07/27 04:41:48;;;;;;;3.50;2.30;;;;;;;;;;5036796;28;20116;-80
2023/07/27 04:44:13;;;;;;;2.47;2.28;;;;;;;;;;5036808;28;20060;-80
2023/07/27 04:46:38;;;;;;;5.80;2.60;;;;;;;;;;5054674;28;20511;-80
2023/07/27 04:49:06;;;;;;;3.85;2.35;;;;;;;;;;5054545;28;20060;-80
2023/07/27 04:51:32;;;;;;;2.22;2.08;;;;;;;;;;5054493;28;20124;-80
2023/07/27 04:53:57;;;;;;;3.22;2.33;;;;;;;;;;5036980;28;20105;-80
2023/07/27 04:56:23;;;;;;;3.45;2.30;;;;;;;;;;5054515;28;20043;-79
2023/07/27 04:58:48;;;;;;;3.03;2.30;;;;;;;;;;5054485;28;20028;-80
2023/07/27 05:01:14;;;;;;;2.45;2.22;;;;;;;;;;5036467;28;20025;-80
2023/07/27 05:03:39;;;;;;;3.72;2.30;;;;;;;;;;5053448;28;20058;-80
2023/07/27 05:06:05;;;;;;;11.65;3.30;;;;;;;;;;5054157;28;20033;-80
2023/07/27 05:08:30;;;;;;;10.95;2.92;;;;;;;;;;5036302;28;20020;-80
2023/07/27 05:10:55;;;;;;;7.50;2.55;;;;;;;;;;5054051;28;20067;-80
2023/07/27 05:13:21;;;;;;;5.47;2.50;;;;;;;;;;5053945;28;20029;-80
2023/07/27 05:15:46;;;;;;;5.13;2.40;;;;;;;;;;5054062;28;20056;-80
2023/07/27 05:18:14;;;;;;;2.38;2.10;;;;;;;;;;5036504;28;20037;-80
2023/07/27 05:20:39;;;;;;;2.67;1.90;;;;;;;;;;5053737;28;20020;-80
2023/07/27 05:23:05;;;;;;;4.25;2.10;;;;;;;;;;5054289;28;20481;-80
2023/07/27 05:25:30;;;;;;;2.20;2.00;;;;;;;;;;5053655;28;20041;-80
2023/07/27 05:27:55;;;;;;;2.08;1.98;;;;;;;;;;5053861;28;20032;-80
2023/07/27 05:30:21;;;;;;;2.70;1.77;;;;;;;;;;5054002;28;20120;-80
2023/07/27 05:32:46;;;;;;;2.67;1.70;;;;;;;;;;5054199;28;20024;-80
2023/07/27 05:35:12;;;;;;;5.20;1.65;;;;;;;;;;5053670;28;20084;-79
2023/07/27 05:37:37;;;;;;;1.95;1.55;;;;;;;;;;5053987;28;20458;-80
2023/07/27 05:40:04;;;;;;;7.05;1.30;;;;;;;;;;5036095;28;20083;-80
2023/07/27 05:42:30;;;;;;;4.55;1.30;;;;;;;;;;5053875;28;20025;-80
2023/07/27 05:44:56;;;;;;;7.18;1.50;;;;;;;;;;5035813;28;20112;-81
2023/07/27 05:47:22;;;;;;;6.82;1.70;;;;;;;;;;5036069;28;20032;-81
2023/07/27 05:49:47;;;;;;;7.28;2.03;;;;;;;;;;5035512;28;20013;-80
2023/07/27 05:52:14;;;;;;;2.08;1.70;;;;;;;;;;5053657;28;20366;-80
2023/07/27 05:54:40;;;;;;;1.90;1.70;;;;;;;;;;5053609;28;20032;-80
2023/07/27 05:57:05;;;;;;;3.35;2.08;;;;;;;;;;5035872;28;20025;-81
2023/07/27 05:59:30;;;;;;;8.35;2.20;;;;;;;;;;5036238;28;20029;-81
2023/07/27 06:01:56;;;;;;;7.45;2.20;;;;;;;;;;5053618;28;20417;-80
2023/07/27 06:04:23;;;;;;;5.60;2.20;;;;;;;;;;5053494;28;20060;-80
2023/07/27 06:06:48;;;;;;;2.00;1.90;;;;;;;;;;5053804;28;20060;-81
2023/07/27 06:09:14;;;;;;;3.85;2.00;;;;;;;;;;5035959;28;20507;-81
2023/07/27 06:11:40;;;;;;;3.20;2.40;;;;;;;;;;5053729;28;20021;-81
2023/07/27 06:14:05;;;;;;;2.97;2.20;;;;;;;;;;5036559;28;20367;-81
2023/07/27 06:16:31;;;;;;;7.57;2.47;;;;;;;;;;5039596;28;20477;-81
2023/07/27 06:18:57;;;;;;;2.72;2.30;;;;;;;;;;5057462;28;20079;-80
2023/07/27 06:21:22;;;;;;;2.50;2.22;;;;;;;;;;5057216;28;20071;-80
2023/07/27 06:23:47;;;;;;;2.20;2.10;;;;;;;;;;5039324;28;20462;-80
2023/07/27 06:26:13;;;;;;;2.90;2.60;;;;;;;;;;5056830;28;20482;-80
2023/07/27 06:28:38;;;;;;;3.63;2.40;;;;;;;;;;5023364;28;20025;-82
2023/07/27 06:31:04;;;;;;;3.90;2.40;;;;;;;;;;5057039;28;20406;-81
2023/07/27 06:33:29;;;;;;;3.47;2.70;;;;;;;;;;5056775;28;20112;-81
2023/07/27 06:35:55;;;;;;;2.90;2.70;;;;;;;;;;5055669;28;20059;-81
2023/07/27 06:38:20;;;;;;;3.25;2.60;;;;;;;;;;5057114;28;20342;-82
2023/07/27 06:40:45;;;;;;;4.03;2.83;;;;;;;;;;5038949;28;20024;-81
2023/07/27 06:43:12;;;;;;;3.10;2.80;;;;;;;;;;5056854;28;20373;-81
2023/07/27 06:45:37;;;;;;;4.65;2.47;;;;;;;;;;5056829;28;20171;-82
2023/07/27 06:48:03;;;;;;;3.00;2.53;;;;;;;;;;5038968;28;20146;-81
2023/07/27 06:50:29;;;;;;;3.50;2.60;;;;;;;;;;5022265;28;20400;-79
2023/07/27 06:52:54;;;;;;;2.97;2.75;;;;;;;;;;5056739;28;20025;-82
2023/07/27 06:55:19;;;;;;;3.03;2.83;;;;;;;;;;5038711;28;20025;-79
2023/07/27 06:57:46;;;;;;;6.05;2.50;;;;;;;;;;5038652;28;20055;-79
2023/07/27 07:00:12;;;;;;;2.13;2.00;;;;;;;;;;5039355;28;20028;-85
2023/07/27 07:02:38;;;;;;;4.45;1.50;;;;;;;;;;5039362;28;20029;-86
2023/07/27 07:05:03;;;;;;;1.52;1.40;;;;;;;;;;5056905;28;20035;-77
2023/07/27 07:07:29;;;;;;;7.93;1.50;;;;;;;;;;5056544;28;20032;-78
2023/07/27 07:09:54;;;;;;;5.65;1.50;;;;;;;;;;5056225;28;20087;-78
2023/07/27 07:12:20;;;;;;;6.10;1.60;;;;;;;;;;5021946;28;20075;-78
2023/07/27 07:14:45;;;;;;;5.30;1.80;;;;;;;;;;5038214;28;20465;-79
2023/07/27 07:17:11;;;;;;;6.53;1.80;;;;;;;;;;5056000;28;20115;-81
2023/07/27 07:19:37;;;;;;;4.50;1.60;;;;;;;;;;5038583;28;20053;-82
2023/07/27 07:22:03;;;;;;;3.30;1.98;;;;;;;;;;5056353;28;20044;-80
2023/07/27 07:24:28;;;;;;;8.65;1.90;;;;;;;;;;5056213;28;20052;-78
2023/07/27 07:26:55;;;;;;;7.03;1.92;;;;;;;;;;5055218;28;20033;-77
2023/07/27 07:29:21;;;;;;;5.57;1.60;;;;;;;;;;5055810;28;20071;-77
2023/07/27 07:31:47;;;;;;;2.63;1.60;;;;;;;;;;5055843;28;20021;-77
2023/07/27 07:34:13;;;;;;;2.75;1.55;;;;;;;;;;5038364;28;20367;-79
2023/07/27 07:36:38;;;;;;;2.85;1.73;;;;;;;;;;5038314;28;20033;-80
2023/07/27 07:39:03;;;;;;;8.35;2.40;;;;;;;;;;5037772;28;20029;-80
2023/07/27 07:41:29;;;;;;;4.93;2.70;;;;;;;;;;5055507;28;20445;-78
2023/07/27 07:43:54;;;;;;;8.68;2.65;;;;;;;;;;5055601;28;20044;-78
2023/07/27 07:46:20;;;;;;;3.65;3.20;;;;;;;;;;5037337;28;20033;-81
2023/07/27 07:48:45;;;;;;;5.93;3.30;;;;;;;;;;5037943;28;20029;-79
2023/07/27 07:51:14;;;;;;;7.60;3.30;;;;;;;;;;5055692;28;20103;-79
2023/07/27 07:53:40;;;;;;;3.03;2.75;;;;;;;;;;5037921;28;20028;-81
2023/07/27 07:56:12;;;;;;;10.30;3.45;;;;;;;;;;5037796;28;20021;-81
2023/07/27 07:58:37;;;;;;;4.22;3.22;;;;;;;;;;5021259;28;20029;-80
2023/07/27 08:01:02;;;;;;;13.07;3.88;;;;;;;;;;5054964;28;20032;-79
2023/07/27 08:03:28;;;;;;;4.03;3.25;;;;;;;;;;5037802;28;20024;-81
2023/07/27 08:05:53;;;;;;;4.03;3.70;;;;;;;;;;5055382;28;20039;-80
2023/07/27 08:08:19;;;;;;;5.63;3.45;;;;;;;;;;5037256;28;20040;-80
2023/07/27 08:10:44;;;;;;;6.32;3.90;;;;;;;;;;5037751;28;20036;-80
2023/07/27 08:13:10;;;;;;;7.57;4.47;;;;;;;;;;5055007;28;20029;-79
2023/07/27 08:15:35;;;;;;;6.85;4.35;;;;;;;;;;5066482;28;20060;-78
2023/07/27 08:18:01;;;;;;;12.27;4.60;;;;;;;;;;5074887;28;20028;-79
2023/07/27 08:20:27;;;;;;;8.80;4.53;;;;;;;;;;5073276;28;20048;-80
2023/07/27 08:22:52;;;;;;;6.38;4.57;;;;;;;;;;5074656;28;20446;-79
2023/07/27 08:25:17;;;;;;;4.65;4.22;;;;;;;;;;5073769;28;20488;-79
2023/07/27 08:27:43;;;;;;;6.75;4.50;;;;;;;;;;5074025;28;20020;-79
2023/07/27 08:30:09;;;;;;;7.78;4.22;;;;;;;;;;5056275;28;20021;-77
2023/07/27 08:32:34;;;;;;;7.18;4.47;;;;;;;;;;5073728;28;20025;-80
2023/07/27 08:35:00;;;;;;;8.02;4.57;;;;;;;;;;5074713;28;20032;-79
2023/07/27 08:37:25;;;;;;;8.00;4.45;;;;;;;;;;5038833;28;20085;-78
2023/07/27 08:39:51;;;;;;;8.75;4.30;;;;;;;;;;5038230;28;20025;-80
2023/07/27 08:42:17;;;;;;;7.28;3.95;;;;;;;;;;5038564;28;20334;-79
2023/07/27 08:44:43;;;;;;;8.75;4.25;;;;;;;;;;5038353;28;20040;-78
2023/07/27 08:47:09;;;;;;;8.40;4.20;;;;;;;;;;5038595;28;20464;-78
2023/07/27 08:49:34;;;;;;;7.38;3.72;;;;;;;;;;5072596;28;20028;-78
2023/07/27 08:52:00;;;;;;;5.47;3.90;;;;;;;;;;5073576;28;20078;-79
2023/07/27 08:54:26;;;;;;;9.65;4.20;;;;;;;;;;5074314;28;20460;-78
2023/07/27 08:56:51;;;;;;;7.93;4.43;;;;;;;;;;5056706;28;20032;-78
2023/07/27 08:59:16;;;;;;;5.65;3.88;;;;;;;;;;5056343;28;20032;-78
2023/07/27 09:01:42;;;;;;;9.25;3.85;;;;;;;;;;5074214;28;20055;-78
2023/07/27 09:04:07;;;;;;;7.18;3.90;;;;;;;;;;5074477;28;20036;-78
2023/07/27 09:06:51;;;;;;;4.32;3.40;;;;;;;;;;5056043;28;20036;-79
2023/07/27 09:09:31;;;;;;;6.93;3.50;;;;;;;;;;5091591;27;20877;-79
2023/07/27 09:11:57;;;;;;;4.53;3.90;;;;;;;;;;5090177;28;20036;-78
2023/07/27 09:14:22;;;;;;;6.70;3.10;;;;;;;;;;5091174;28;20092;-78
2023/07/27 09:16:48;;;;;;;4.82;2.95;;;;;;;;;;5091439;28;20028;-78
2023/07/27 09:19:18;;;;;;;6.32;2.70;;;;;;;;;;5056851;28;20086;-79
2023/07/27 09:21:45;;;;;;;5.72;2.90;;;;;;;;;;5073707;28;20066;-79
2023/07/27 09:24:14;;;;;;;6.75;3.35;;;;;;;;;;5089934;28;20123;-79
2023/07/27 09:26:51;;;;;;;5.38;2.67;;;;;;;;;;5091411;28;20040;-79
2023/07/27 09:29:18;;;;;;;3.00;2.15;;;;;;;;;;5090758;27;20029;-79
2023/07/27 09:31:44;;;;;;;4.07;2.85;;;;;;;;;;5090147;28;20039;-79
2023/07/27 09:34:10;;;;;;;6.40;2.60;;;;;;;;;;5091030;28;20029;-79
2023/07/27 09:36:35;;;;;;;4.78;2.45;;;;;;;;;;5089893;28;20491;-78
2023/07/27 09:39:01;;;;;;;6.60;2.75;;;;;;;;;;5089916;28;20033;-78
2023/07/27 09:41:26;;;;;;;6.57;3.00;;;;;;;;;;5072852;28;20496;-79
2023/07/27 09:43:53;;;;;;;6.35;3.00;;;;;;;;;;5089511;28;20028;-80
2023/07/27 09:46:22;;;;;;;11.25;2.78;;;;;;;;;;5089706;28;20173;-79
2023/07/27 09:48:48;;;;;;;3.10;2.42;;;;;;;;;;5072886;28;20117;-79
2023/07/27 09:51:13;;;;;;;5.55;2.58;;;;;;;;;;5089567;28;20062;-78
2023/07/27 09:53:39;;;;;;;7.88;2.97;;;;;;;;;;5089501;28;20028;-78
2023/07/27 09:56:05;;;;;;;5.40;2.30;;;;;;;;;;5072942;28;20521;-78
2023/07/27 09:58:30;;;;;;;6.38;2.67;;;;;;;;;;5089102;28;20123;-80
2023/07/27 10:00:56;;;;;;;9.48;2.90;;;;;;;;;;5089484;28;20093;-79
2023/07/27 10:03:40;;;;;;;6.65;3.10;;;;;;;;;;5090815;28;20453;-80
2023/07/27 10:06:06;;;;;;;4.47;3.10;;;;;;;;;;5090836;28;20111;-79
2023/07/27 10:08:34;;;;;;;5.82;3.38;;;;;;;;;;5090313;28;20151;-78
2023/07/27 10:11:03;;;;;;;10.27;3.38;;;;;;;;;;5092026;28;20032;-78
2023/07/27 10:13:28;;;;;;;6.32;2.47;;;;;;;;;;5092724;28;20040;-77
2023/07/27 10:15:55;;;;;;;6.40;2.67;;;;;;;;;;5093667;28;20040;-78
2023/07/27 10:18:21;;;;;;;7.68;2.88;;;;;;;;;;5075620;28;20126;-79
2023/07/27 10:20:47;;;;;;;9.93;2.90;;;;;;;;;;5079343;28;20029;-78
2023/07/27 10:23:27;;;;;;;7.05;2.80;;;;;;;;;;5076894;28;20116;-78
2023/07/27 10:25:56;;;;;;;6.43;2.38;;;;;;;;;;5060298;28;20039;-79
2023/07/27 10:28:48;;;;;;;6.03;2.78;;;;;;;;;;5076939;28;20036;-79
2023/07/27 10:31:14;;;;;;;8.55;3.03;;;;;;;;;;5074976;28;20036;-79
2023/07/27 10:34:07;;;;;;;7.18;2.78;;;;;;;;;;5076467;28;20241;-80
2023/07/27 10:36:57;;;;;;;3.85;2.42;;;;;;;;;;5075184;28;20142;-79
2023/07/27 10:39:31;;;;;;;7.13;2.80;;;;;;;;;;5074750;28;20439;-80
2023/07/27 10:42:06;;;;;;;8.63;2.70;;;;;;;;;;5074529;28;20032;-79
2023/07/27 10:44:47;;;;;;;3.78;2.55;;;;;;;;;;5073522;28;20230;-78
2023/07/27 10:47:22;;;;;;;4.18;2.92;;;;;;;;;;5073504;28;20024;-79
2023/07/27 10:49:49;;;;;;;7.10;2.90;;;;;;;;;;5074676;28;20038;-79
2023/07/27 10:52:16;;;;;;;5.78;3.00;;;;;;;;;;5076451;28;20119;-80
2023/07/27 10:54:42;;;;;;;8.20;2.80;;;;;;;;;;5058570;28;20028;-80
2023/07/27 10:57:09;;;;;;;4.75;2.78;;;;;;;;;;5058153;28;20093;-80
2023/07/27 10:59:36;;;;;;;3.08;2.35;;;;;;;;;;5076350;28;20482;-79
2023/07/27 11:02:02;;;;;;;13.05;3.22;;;;;;;;;;5074992;28;20111;-79
2023/07/27 11:04:28;;;;;;;3.78;2.80;;;;;;;;;;5074726;28;20062;-78
2023/07/27 11:06:53;;;;;;;6.35;2.60;;;;;;;;;;5074977;28;20488;-79
2023/07/27 11:09:19;;;;;;;10.93;2.83;;;;;;;;;;5075548;28;20041;-79
2023/07/27 11:11:44;;;;;;;5.18;3.13;;;;;;;;;;5074605;28;20037;-79
2023/07/27 11:14:10;;;;;;;7.15;2.47;;;;;;;;;;5074535;28;20093;-80
2023/07/27 11:16:38;;;;;;;8.98;2.50;;;;;;;;;;5075776;28;20040;-78
2023/07/27 11:19:06;;;;;;;5.90;3.13;;;;;;;;;;5058528;28;20044;-79
2023/07/27 11:21:32;;;;;;;4.43;2.25;;;;;;;;;;5041789;28;20029;-78
2023/07/27 11:23:57;;;;;;;5.88;2.70;;;;;;;;;;5075226;28;20119;-79
2023/07/27 11:26:26;;;;;;;7.68;2.50;;;;;;;;;;5074345;28;20028;-79
2023/07/27 11:28:53;;;;;;;4.72;2.72;;;;;;;;;;5075920;28;20090;-80
2023/07/27 11:31:18;;;;;;;7.07;2.70;;;;;;;;;;5073389;28;20054;-79
2023/07/27 11:33:43;;;;;;;5.85;2.42;;;;;;;;;;5075336;28;20025;-80
2023/07/27 11:36:10;;;;;;;4.57;2.45;;;;;;;;;;5075446;28;20029;-79
2023/07/27 11:38:36;;;;;;;6.53;2.20;;;;;;;;;;5073894;28;20031;-80
2023/07/27 11:41:01;;;;;;;9.20;2.47;;;;;;;;;;5057740;28;20448;-80
2023/07/27 11:43:27;;;;;;;4.88;2.30;;;;;;;;;;5057251;28;20029;-79
2023/07/27 11:45:56;;;;;;;5.43;2.47;;;;;;;;;;5074238;28;20085;-80
2023/07/27 11:48:28;;;;;;;3.95;2.50;;;;;;;;;;5074967;28;20484;-79
2023/07/27 11:50:56;;;;;;;8.50;2.65;;;;;;;;;;5075277;28;20115;-79
2023/07/27 11:53:24;;;;;;;6.03;2.90;;;;;;;;;;5075112;28;20434;-80
2023/07/27 11:55:49;;;;;;;5.78;3.25;;;;;;;;;;5075246;28;20263;-79
2023/07/27 11:58:15;;;;;;;5.30;2.58;;;;;;;;;;5074885;28;20456;-79
2023/07/27 12:00:45;;;;;;;6.47;2.72;;;;;;;;;;5073663;28;20028;-79
2023/07/27 12:03:10;;;;;;;5.88;2.72;;;;;;;;;;5041266;28;20028;-79
2023/07/27 12:05:36;;;;;;;4.28;2.17;;;;;;;;;;5073587;28;20031;-79
2023/07/27 12:08:02;;;;;;;7.90;2.25;;;;;;;;;;5073077;28;20048;-79
2023/07/27 12:10:27;;;;;;;7.30;2.42;;;;;;;;;;5057107;28;20425;-79
2023/07/27 12:13:00;;;;;;;6.57;2.40;;;;;;;;;;5073503;28;20029;-80
2023/07/27 12:15:29;;;;;;;10.45;2.25;;;;;;;;;;5074816;28;20025;-79
2023/07/27 12:17:55;;;;;;;9.77;2.45;;;;;;;;;;5074493;28;20072;-79
2023/07/27 12:20:22;;;;;;;5.35;2.20;;;;;;;;;;5073238;28;20037;-79
2023/07/27 12:22:47;;;;;;;11.98;3.00;;;;;;;;;;5073273;28;20070;-79
2023/07/27 12:25:13;;;;;;;10.18;2.08;;;;;;;;;;5074416;28;20438;-79
2023/07/27 12:27:38;;;;;;;9.20;2.83;;;;;;;;;;5074559;28;20024;-80
2023/07/27 12:30:04;;;;;;;3.95;2.47;;;;;;;;;;5074582;28;20028;-79
2023/07/27 12:32:30;;;;;;;4.28;2.40;;;;;;;;;;5074407;28;20461;-79
2023/07/27 12:34:55;;;;;;;3.50;2.60;;;;;;;;;;5074396;28;20033;-79
2023/07/27 12:37:20;;;;;;;5.18;2.40;;;;;;;;;;5073990;28;20454;-79
2023/07/27 12:39:46;;;;;;;8.27;2.33;;;;;;;;;;5074417;28;20477;-79
2023/07/27 12:42:12;;;;;;;2.95;2.22;;;;;;;;;;5074166;28;20028;-79
2023/07/27 12:44:37;;;;;;;7.88;2.60;;;;;;;;;;5074164;28;20138;-80
2023/07/27 12:47:03;;;;;;;8.52;2.70;;;;;;;;;;5074185;28;20021;-79
2023/07/27 12:49:28;;;;;;;5.22;2.83;;;;;;;;;;5074048;28;20087;-80
2023/07/27 12:51:54;;;;;;;4.57;2.38;;;;;;;;;;5073999;28;20127;-79
2023/07/27 12:54:19;;;;;;;10.50;2.30;;;;;;;;;;5074285;28;20060;-79
2023/07/27 12:56:45;;;;;;;6.57;2.28;;;;;;;;;;5074202;28;20028;-79
2023/07/27 12:59:10;;;;;;;5.38;2.50;;;;;;;;;;5073842;28;20109;-79
2023/07/27 13:01:35;;;;;;;9.10;3.47;;;;;;;;;;5072956;28;20505;-79
2023/07/27 13:04:02;;;;;;;3.90;2.58;;;;;;;;;;5073988;28;20033;-80
2023/07/27 13:06:28;;;;;;;4.13;2.75;;;;;;;;;;5073685;28;20115;-79
2023/07/27 13:08:53;;;;;;;6.88;2.90;;;;;;;;;;5072912;28;20143;-79
2023/07/27 13:11:19;;;;;;;10.63;2.97;;;;;;;;;;5073769;28;20032;-79
2023/07/27 13:13:45;;;;;;;5.35;2.80;;;;;;;;;;5073100;28;20028;-79
2023/07/27 13:16:10;;;;;;;9.82;2.60;;;;;;;;;;5074421;28;20331;-79
2023/07/27 13:18:36;;;;;;;8.45;3.08;;;;;;;;;;5055954;28;20037;-79
2023/07/27 13:21:01;;;;;;;5.32;2.72;;;;;;;;;;5073606;28;20089;-79
2023/07/27 13:23:26;;;;;;;10.80;2.95;;;;;;;;;;5072609;28;20365;-79
2023/07/27 13:25:52;;;;;;;12.63;3.10;;;;;;;;;;5073844;28;20025;-79
2023/07/27 13:28:17;;;;;;;15.23;3.25;;;;;;;;;;5072547;28;20042;-78
2023/07/27 13:30:44;;;;;;;15.00;3.33;;;;;;;;;;5073701;28;20025;-79
2023/07/27 13:33:09;;;;;;;9.00;3.05;;;;;;;;;;5055694;28;20063;-80
2023/07/27 13:35:35;;;;;;;10.40;3.20;;;;;;;;;;5073715;28;20068;-80
2023/07/27 13:38:00;;;;;;;8.13;2.85;;;;;;;;;;5056013;28;20031;-79
2023/07/27 13:40:26;;;;;;;9.35;3.10;;;;;;;;;;5074447;28;20029;-79
2023/07/27 13:42:52;;;;;;;7.88;2.90;;;;;;;;;;5073687;28;20453;-78
2023/07/27 13:45:18;;;;;;;7.63;3.20;;;;;;;;;;5074259;28;20032;-78
2023/07/27 13:47:43;;;;;;;8.48;3.30;;;;;;;;;;5073623;28;20155;-78
2023/07/27 13:50:09;;;;;;;9.80;3.40;;;;;;;;;;5072439;28;20028;-78
2023/07/27 13:52:34;;;;;;;7.15;3.30;;;;;;;;;;5073789;28;20013;-79
2023/07/27 13:55:00;;;;;;;7.82;2.97;;;;;;;;;;5075024;28;20362;-78
2023/07/27 13:57:25;;;;;;;10.65;3.17;;;;;;;;;;5077291;28;20342;-78
2023/07/27 13:59:50;;;;;;;7.03;3.40;;;;;;;;;;5077302;28;20021;-79
2023/07/27 14:02:16;;;;;;;8.23;3.38;;;;;;;;;;5077126;28;20098;-78
2023/07/27 14:04:42;;;;;;;13.82;3.45;;;;;;;;;;5077454;28;20093;-78
2023/07/27 14:07:07;;;;;;;7.85;3.50;;;;;;;;;;5077401;28;20429;-78
2023/07/27 14:09:33;;;;;;;9.50;3.28;;;;;;;;;;5076048;28;20036;-78
2023/07/27 14:11:58;;;;;;;13.13;3.50;;;;;;;;;;5076144;28;20123;-78
2023/07/27 14:14:24;;;;;;;9.38;3.58;;;;;;;;;;5077055;28;20036;-79
2023/07/27 14:16:49;;;;;;;6.18;3.53;;;;;;;;;;5059313;28;20040;-78
2023/07/27 14:19:15;;;;;;;10.68;3.75;;;;;;;;;;5076847;28;20028;-79
2023/07/27 14:21:40;;;;;;;6.90;3.80;;;;;;;;;;5076072;28;20032;-79
2023/07/27 14:24:05;;;;;;;12.48;3.80;;;;;;;;;;5075629;28;20467;-78
2023/07/27 14:26:31;;;;;;;10.25;3.72;;;;;;;;;;5059259;28;20082;-78
2023/07/27 14:28:56;;;;;;;7.28;3.50;;;;;;;;;;5075615;28;20036;-78
2023/07/27 14:31:22;;;;;;;17.10;3.42;;;;;;;;;;5076711;28;20365;-79
2023/07/27 14:33:47;;;;;;;8.88;3.60;;;;;;;;;;5076359;28;20115;-77
2023/07/27 14:36:13;;;;;;;6.78;3.35;;;;;;;;;;5076535;28;20097;-78
2023/07/27 14:38:38;;;;;;;11.57;3.85;;;;;;;;;;5075428;28;20418;-78